Time;durP1;ratioP1;P1;durP2;ratioP2;P2;SDS_P1;SDS_P2;PMS_P1;PMS_P2;Temp;Humidity;BMP_temperature;BMP_pressure;BME280_temperature;BME280_humidity;BME280_pressure;Samples;Min_cycle;Max_cycle;Signal;HPM_P1;HPM_P2
2022/04/11 00:02:14;;;;;;;;;;;21.00;27.10;;;;;;5121718;28;19923;-56
2022/04/11 00:04:40;;;;;;;;;;;21.20;26.90;;;;;;5125973;28;19976;-57
2022/04/11 00:07:06;;;;;;;;;;;20.80;27.40;;;;;;5119567;28;20332;-58
2022/04/11 00:09:32;;;;;;;;;;;21.10;27.00;;;;;;5126294;28;19959;-56
2022/04/11 00:11:57;;;;;;;;;;;21.10;26.90;;;;;;5120777;28;20371;-60
2022/04/11 00:14:24;;;;;;;;;;;21.10;26.90;;;;;;5121442;28;19934;-57
2022/04/11 00:16:49;;;;;;;;;;;21.30;26.70;;;;;;5126641;28;19930;-59
2022/04/11 00:19:15;;;;;;;;;;;21.00;27.10;;;;;;5120307;28;20371;-57
2022/04/11 00:21:41;;;;;;;;;;;21.10;26.90;;;;;;5120905;28;20027;-59
2022/04/11 00:24:07;;;;;;;;;;;21.20;26.80;;;;;;5124678;28;19927;-58
2022/04/11 00:26:33;;;;;;;;;;;21.20;26.80;;;;;;5120502;28;19945;-58
2022/04/11 00:28:58;;;;;;;;;;;21.00;27.00;;;;;;5124764;28;20287;-60
2022/04/11 00:31:24;;;;;;;;;;;21.10;26.90;;;;;;5121115;28;19962;-51
2022/04/11 00:33:50;;;;;;;;;;;21.20;26.80;;;;;;5121078;28;19923;-59
2022/04/11 00:36:16;;;;;;;;;;;21.00;27.00;;;;;;5125463;28;20405;-59
2022/04/11 00:38:42;;;;;;;;;;;21.20;26.80;;;;;;5121121;28;19973;-58
2022/04/11 00:41:07;;;;;;;;;;;21.00;27.10;;;;;;5120294;28;20220;-59
2022/04/11 00:43:34;;;;;;;;;;;21.10;27.00;;;;;;5124293;28;19931;-59
2022/04/11 00:46:00;;;;;;;;;;;21.10;26.80;;;;;;5120208;28;20226;-58
2022/04/11 00:48:26;;;;;;;;;;;21.10;26.80;;;;;;5125351;28;19923;-58
2022/04/11 00:50:52;;;;;;;;;;;21.10;26.80;;;;;;5120474;27;20286;-61
2022/04/11 00:53:18;;;;;;;;;;;21.20;26.70;;;;;;5100516;28;20010;-59
2022/04/11 00:55:44;;;;;;;;;;;21.00;26.90;;;;;;5106405;28;19930;-60
2022/04/11 00:58:10;;;;;;;;;;;21.10;26.80;;;;;;5120828;28;20371;-58
2022/04/11 01:00:36;;;;;;;;;;;21.10;26.80;;;;;;5119126;28;20350;-59
2022/04/11 01:03:02;;;;;;;;;;;21.20;26.80;;;;;;5124808;28;20424;-58
2022/04/11 01:05:28;;;;;;;;;;;21.10;26.90;;;;;;5119069;28;20903;-59
2022/04/11 01:07:55;;;;;;;;;;;21.10;26.80;;;;;;5123736;28;19923;-59
2022/04/11 01:10:21;;;;;;;;;;;21.00;26.90;;;;;;5124442;28;19930;-59
2022/04/11 01:12:47;;;;;;;;;;;21.10;26.80;;;;;;5119717;28;19931;-59
2022/04/11 01:15:13;;;;;;;;;;;21.10;26.80;;;;;;5125930;28;19930;-58
2022/04/11 01:17:39;;;;;;;;;;;20.90;27.10;;;;;;5120093;28;19927;-59
2022/04/11 01:20:12;;;;;;;;;;;21.00;27.00;;;;;;5118385;28;19923;-58
2022/04/11 01:22:41;;;;;;;;;;;21.20;26.80;;;;;;5125254;28;19923;-59
2022/04/11 01:25:07;;;;;;;;;;;21.10;26.90;;;;;;5119126;28;19923;-60
2022/04/11 01:27:33;;;;;;;;;;;21.20;26.80;;;;;;5120393;28;20657;-60
2022/04/11 01:29:59;;;;;;;;;;;21.10;27.00;;;;;;5125931;28;19928;-54
2022/04/11 01:32:24;;;;;;;;;;;21.20;26.90;;;;;;5101299;28;19923;-60
2022/04/11 01:34:50;;;;;;;;;;;21.10;27.00;;;;;;5125844;28;20344;-57
2022/04/11 01:37:16;;;;;;;;;;;21.10;26.80;;;;;;5118992;28;19923;-59
2022/04/11 01:39:42;;;;;;;;;;;21.10;26.90;;;;;;5119152;28;19927;-59
2022/04/11 01:42:08;;;;;;;;;;;21.20;26.80;;;;;;5124152;28;20122;-58
2022/04/11 01:44:33;;;;;;;;;;;21.00;26.90;;;;;;5120021;28;19924;-59
2022/04/11 01:46:59;;;;;;;;;;;21.00;26.80;;;;;;5120442;28;20632;-57
2022/04/11 01:49:25;;;;;;;;;;;21.10;26.60;;;;;;5124759;28;19924;-59
2022/04/11 01:51:52;;;;;;;;;;;21.20;26.60;;;;;;5120036;28;19924;-57
2022/04/11 01:54:17;;;;;;;;;;;21.10;26.60;;;;;;5124124;28;20275;-58
2022/04/11 01:56:43;;;;;;;;;;;21.20;26.50;;;;;;5119434;28;20166;-59
2022/04/11 01:59:09;;;;;;;;;;;21.00;26.60;;;;;;5119536;28;20442;-58
2022/04/11 02:01:35;;;;;;;;;;;21.10;26.60;;;;;;5123870;28;19932;-60
2022/04/11 02:04:00;;;;;;;;;;;21.10;26.50;;;;;;5122688;27;19931;-48
2022/04/11 02:06:26;;;;;;;;;;;21.20;26.40;;;;;;5123553;28;20383;-59
2022/04/11 02:08:52;;;;;;;;;;;20.90;26.70;;;;;;5127731;28;20310;-59
2022/04/11 02:11:18;;;;;;;;;;;21.00;26.60;;;;;;5123616;28;19930;-57
2022/04/11 02:13:43;;;;;;;;;;;21.20;26.50;;;;;;5124918;28;19927;-58
2022/04/11 02:16:09;;;;;;;;;;;21.10;26.60;;;;;;5124689;28;19927;-58
2022/04/11 02:18:35;;;;;;;;;;;21.20;26.40;;;;;;5103266;28;20306;-60
2022/04/11 02:21:00;;;;;;;;;;;21.00;26.70;;;;;;5128160;28;20017;-59
2022/04/11 02:23:26;;;;;;;;;;;21.10;26.50;;;;;;5123198;28;19934;-60
2022/04/11 02:25:52;;;;;;;;;;;21.20;26.40;;;;;;5123203;28;19931;-59
2022/04/11 02:28:18;;;;;;;;;;;20.90;26.80;;;;;;5109416;28;19923;-59
2022/04/11 02:30:44;;;;;;;;;;;20.90;26.70;;;;;;5122878;28;19946;-60
2022/04/11 02:33:09;;;;;;;;;;;21.10;26.60;;;;;;5121342;28;19923;-60
2022/04/11 02:35:35;;;;;;;;;;;21.10;26.50;;;;;;5127268;28;19924;-59
2022/04/11 02:38:01;;;;;;;;;;;21.10;26.50;;;;;;5121286;28;19988;-56
2022/04/11 02:40:27;;;;;;;;;;;21.10;26.50;;;;;;5128388;28;20022;-59
2022/04/11 02:42:53;;;;;;;;;;;21.00;26.70;;;;;;5103877;28;20276;-59
2022/04/11 02:45:19;;;;;;;;;;;21.10;26.50;;;;;;5102999;28;19928;-58
2022/04/11 02:47:45;;;;;;;;;;;21.20;26.40;;;;;;5128081;28;20374;-58
2022/04/11 02:50:11;;;;;;;;;;;21.20;26.30;;;;;;5121921;28;19954;-59
2022/04/11 02:52:36;;;;;;;;;;;21.10;26.50;;;;;;5120381;28;19930;-55
2022/04/11 02:55:02;;;;;;;;;;;21.20;26.40;;;;;;5127510;28;19927;-59
2022/04/11 02:57:31;;;;;;;;;;;21.10;26.50;;;;;;5121329;28;19923;-53
2022/04/11 02:59:57;;;;;;;;;;;21.20;26.40;;;;;;5128155;28;19923;-59
2022/04/11 03:02:23;;;;;;;;;;;21.00;26.50;;;;;;5122414;28;19923;-59
2022/04/11 03:04:49;;;;;;;;;;;21.30;26.30;;;;;;5121324;28;19924;-59
2022/04/11 03:07:14;;;;;;;;;;;20.90;26.80;;;;;;5109619;28;19923;-59
2022/04/11 03:09:40;;;;;;;;;;;21.10;26.60;;;;;;5121075;28;19931;-59
2022/04/11 03:12:06;;;;;;;;;;;21.20;26.40;;;;;;5120758;28;20123;-59
2022/04/11 03:14:32;;;;;;;;;;;21.10;26.60;;;;;;5125261;27;20423;-60
2022/04/11 03:16:58;;;;;;;;;;;21.10;26.60;;;;;;5121956;28;19923;-59
2022/04/11 03:19:25;;;;;;;;;;;21.20;26.50;;;;;;5109278;28;19931;-56
2022/04/11 03:21:50;;;;;;;;;;;21.10;26.40;;;;;;5121940;28;20010;-60
2022/04/11 03:24:16;;;;;;;;;;;21.20;26.40;;;;;;5121546;28;19975;-59
2022/04/11 03:26:42;;;;;;;;;;;21.20;26.40;;;;;;5127468;28;20001;-59
2022/04/11 03:29:08;;;;;;;;;;;21.10;26.40;;;;;;5119924;28;19927;-49
2022/04/11 03:31:33;;;;;;;;;;;21.10;26.40;;;;;;5121332;28;19950;-58
2022/04/11 03:33:59;;;;;;;;;;;21.00;26.50;;;;;;5125652;28;19927;-60
2022/04/11 03:36:25;;;;;;;;;;;21.10;26.40;;;;;;5121900;28;20010;-60
2022/04/11 03:38:51;;;;;;;;;;;21.10;26.30;;;;;;5125348;28;19923;-59
2022/04/11 03:41:17;;;;;;;;;;;21.00;26.50;;;;;;5088127;28;20006;-60
2022/04/11 03:43:42;;;;;;;;;;;21.10;26.40;;;;;;5121617;28;20311;-60
2022/04/11 03:46:08;;;;;;;;;;;21.20;26.30;;;;;;5126426;28;20363;-58
2022/04/11 03:48:34;;;;;;;;;;;21.10;26.40;;;;;;5119616;28;19945;-59
2022/04/11 03:51:00;;;;;;;;;;;21.20;26.40;;;;;;5120892;28;19931;-59
2022/04/11 03:53:26;;;;;;;;;;;21.10;26.50;;;;;;5126132;28;19947;-57
2022/04/11 03:55:51;;;;;;;;;;;21.20;26.40;;;;;;5121676;28;19946;-59
2022/04/11 03:58:17;;;;;;;;;;;21.10;26.60;;;;;;5122650;28;19934;-58
2022/04/11 04:00:43;;;;;;;;;;;21.20;26.40;;;;;;5125246;28;20344;-59
2022/04/11 04:03:12;;;;;;;;;;;21.10;26.50;;;;;;5121333;28;20010;-59
2022/04/11 04:05:44;;;;;;;;;;;21.10;26.40;;;;;;5106999;28;19948;-59
2022/04/11 04:08:10;;;;;;;;;;;21.10;26.40;;;;;;5084981;28;20011;-59
2022/04/11 04:10:36;;;;;;;;;;;21.30;26.20;;;;;;5119635;28;19923;-58
2022/04/11 04:13:02;;;;;;;;;;;21.20;26.30;;;;;;5126880;28;19931;-59
2022/04/11 04:15:28;;;;;;;;;;;21.00;26.40;;;;;;5121520;28;19923;-59
2022/04/11 04:17:54;;;;;;;;;;;21.10;26.30;;;;;;5120562;28;20521;-59
2022/04/11 04:20:20;;;;;;;;;;;21.20;26.20;;;;;;5126922;28;19927;-59
2022/04/11 04:22:46;;;;;;;;;;;21.10;26.30;;;;;;5120722;28;19931;-59
2022/04/11 04:25:12;;;;;;;;;;;21.10;26.30;;;;;;5124485;27;19924;-59
2022/04/11 04:27:37;;;;;;;;;;;21.10;26.30;;;;;;5120873;28;19923;-58
2022/04/11 04:30:04;;;;;;;;;;;20.90;26.40;;;;;;5119734;28;20010;-60
2022/04/11 04:32:30;;;;;;;;;;;21.00;26.40;;;;;;5126547;28;20007;-59
2022/04/11 04:34:56;;;;;;;;;;;21.10;26.30;;;;;;5121176;28;20436;-59
2022/04/11 04:37:21;;;;;;;;;;;21.20;26.30;;;;;;5119934;28;19992;-60
2022/04/11 04:39:47;;;;;;;;;;;21.00;26.40;;;;;;5126624;28;19928;-59
2022/04/11 04:42:19;;;;;;;;;;;21.20;26.30;;;;;;5119653;28;20367;-55
2022/04/11 04:44:45;;;;;;;;;;;21.10;26.30;;;;;;5120686;28;20018;-60
2022/04/11 04:47:10;;;;;;;;;;;21.10;26.30;;;;;;5124283;28;19923;-59
2022/04/11 04:49:36;;;;;;;;;;;21.10;26.20;;;;;;5120689;28;19927;-58
2022/04/11 04:52:02;;;;;;;;;;;21.00;26.50;;;;;;5126453;28;20057;-58
2022/04/11 04:54:28;;;;;;;;;;;21.10;26.30;;;;;;5119943;28;19931;-60
2022/04/11 04:56:54;;;;;;;;;;;21.10;26.30;;;;;;5102080;28;19923;-54
2022/04/11 04:59:19;;;;;;;;;;;21.20;26.20;;;;;;5125669;28;20006;-58
2022/04/11 05:01:45;;;;;;;;;;;21.00;26.40;;;;;;5118659;28;19923;-60
2022/04/11 05:04:11;;;;;;;;;;;21.10;26.40;;;;;;5120068;28;19967;-59
2022/04/11 05:06:37;;;;;;;;;;;21.10;26.40;;;;;;5124433;28;19942;-59
2022/04/11 05:09:03;;;;;;;;;;;21.20;26.30;;;;;;5120782;28;19976;-58
2022/04/11 05:11:28;;;;;;;;;;;21.00;26.50;;;;;;5126260;28;19928;-60
2022/04/11 05:13:54;;;;;;;;;;;21.00;26.50;;;;;;5119606;28;20351;-60
2022/04/11 05:16:20;;;;;;;;;;;21.00;26.60;;;;;;5120784;28;19927;-60
2022/04/11 05:18:46;;;;;;;;;;;21.10;26.50;;;;;;5124975;28;19930;-59
2022/04/11 05:21:11;;;;;;;;;;;21.10;26.50;;;;;;5118507;28;20264;-58
2022/04/11 05:23:37;;;;;;;;;;;21.20;26.40;;;;;;5119285;28;19934;-59
2022/04/11 05:26:06;;;;;;;;;;;21.10;26.50;;;;;;5106846;28;19927;-59
2022/04/11 05:28:32;;;;;;;;;;;21.20;26.40;;;;;;5120670;28;19927;-60
2022/04/11 05:30:58;;;;;;;;;;;21.10;26.50;;;;;;5125731;28;19972;-60
2022/04/11 05:33:24;;;;;;;;;;;21.10;26.40;;;;;;5119709;28;19932;-54
2022/04/11 05:35:50;;;;;;;;;;;21.20;26.40;;;;;;5120094;28;19927;-57
2022/04/11 05:38:16;;;;;;;;;;;21.10;26.50;;;;;;5125788;27;19967;-58
2022/04/11 05:40:42;;;;;;;;;;;21.20;26.30;;;;;;5122995;28;19955;-59
2022/04/11 05:43:08;;;;;;;;;;;21.10;26.50;;;;;;5122154;28;20002;-57
2022/04/11 05:45:35;;;;;;;;;;;21.00;26.70;;;;;;5111144;28;19946;-58
2022/04/11 05:48:01;;;;;;;;;;;21.10;26.60;;;;;;5124059;28;19929;-58
2022/04/11 05:50:27;;;;;;;;;;;21.10;26.50;;;;;;5107534;28;19946;-58
2022/04/11 05:52:53;;;;;;;;;;;21.20;26.40;;;;;;5107756;28;19923;-59
2022/04/11 05:55:19;;;;;;;;;;;21.00;26.60;;;;;;5122990;28;20022;-57
2022/04/11 05:57:44;;;;;;;;;;;21.10;26.60;;;;;;5108394;28;19923;-59
2022/04/11 06:00:11;;;;;;;;;;;21.10;26.60;;;;;;5122823;28;19976;-60
2022/04/11 06:02:37;;;;;;;;;;;21.10;26.50;;;;;;5122317;28;19927;-59
2022/04/11 06:05:02;;;;;;;;;;;21.20;26.40;;;;;;5128980;28;19934;-59
2022/04/11 06:07:32;;;;;;;;;;;21.10;26.50;;;;;;5123470;28;20018;-59
2022/04/11 06:09:58;;;;;;;;;;;21.10;26.50;;;;;;5122272;28;20025;-59
2022/04/11 06:12:25;;;;;;;;;;;21.10;26.50;;;;;;5129026;28;19929;-60
2022/04/11 06:14:53;;;;;;;;;;;21.30;26.40;;;;;;5122176;28;19923;-58
2022/04/11 06:17:23;;;;;;;;;;;21.00;26.70;;;;;;5127508;28;20307;-57
2022/04/11 06:19:52;;;;;;;;;;;21.10;26.50;;;;;;5121854;28;20070;-59
2022/04/11 06:22:18;;;;;;;;;;;21.00;26.70;;;;;;5122982;28;19945;-59
2022/04/11 06:24:44;;;;;;;;;;;21.10;26.60;;;;;;5128818;28;19923;-49
2022/04/11 06:27:10;;;;;;;;;;;21.10;26.60;;;;;;5122276;28;20328;-60
2022/04/11 06:29:36;;;;;;;;;;;21.10;26.70;;;;;;5122971;28;20010;-57
2022/04/11 06:32:04;;;;;;;;;;;21.20;26.60;;;;;;5128274;28;19924;-59
2022/04/11 06:34:30;;;;;;;;;;;20.90;26.90;;;;;;5121089;28;19927;-59
2022/04/11 06:36:56;;;;;;;;;;;21.10;26.60;;;;;;5106693;28;19927;-56
2022/04/11 06:39:22;;;;;;;;;;;21.30;26.50;;;;;;5124604;28;20422;-59
2022/04/11 06:41:48;;;;;;;;;;;21.00;26.70;;;;;;5123065;28;20052;-58
2022/04/11 06:44:13;;;;;;;;;;;21.20;26.50;;;;;;5128345;28;20284;-57
2022/04/11 06:46:39;;;;;;;;;;;20.90;26.80;;;;;;5103489;28;19938;-59
2022/04/11 06:49:05;;;;;;;;;;;21.10;26.60;;;;;;5104444;28;20390;-54
2022/04/11 06:51:31;;;;;;;;;;;21.20;26.50;;;;;;5126931;28;19931;-57
2022/04/11 06:53:56;;;;;;;;;;;21.10;26.60;;;;;;5121145;28;20450;-57
2022/04/11 06:56:22;;;;;;;;;;;21.10;26.60;;;;;;5118019;28;19950;-57
2022/04/11 06:58:48;;;;;;;;;;;21.10;26.70;;;;;;5127343;28;19924;-59
2022/04/11 07:01:14;;;;;;;;;;;21.10;26.70;;;;;;5104361;28;19923;-48
2022/04/11 07:03:40;;;;;;;;;;;21.10;26.70;;;;;;5127865;28;20286;-59
2022/04/11 07:06:05;;;;;;;;;;;21.10;26.80;;;;;;5121840;28;20375;-50
2022/04/11 07:08:31;;;;;;;;;;;21.10;26.90;;;;;;5122296;28;19945;-59
2022/04/11 07:10:57;;;;;;;;;;;21.20;26.80;;;;;;5125980;28;19928;-51
2022/04/11 07:13:23;;;;;;;;;;;21.00;27.00;;;;;;5121105;28;20302;-59
2022/04/11 07:15:49;;;;;;;;;;;21.00;27.00;;;;;;5120547;28;19976;-51
2022/04/11 07:18:15;;;;;;;;;;;21.20;26.60;;;;;;5127794;28;19923;-59
2022/04/11 07:20:40;;;;;;;;;;;21.00;26.80;;;;;;5122413;28;19923;-51
2022/04/11 07:23:06;;;;;;;;;;;21.20;26.60;;;;;;5126434;28;19931;-59
2022/04/11 07:25:32;;;;;;;;;;;21.10;26.70;;;;;;5122135;28;19934;-58
2022/04/11 07:27:58;;;;;;;;;;;21.10;26.90;;;;;;5121505;28;20002;-49
2022/04/11 07:30:24;;;;;;;;;;;21.20;26.80;;;;;;5125452;28;20006;-59
2022/04/11 07:32:50;;;;;;;;;;;21.00;27.00;;;;;;5121576;28;19923;-57
2022/04/11 07:35:16;;;;;;;;;;;21.20;26.80;;;;;;5120678;28;19924;-59
2022/04/11 07:37:41;;;;;;;;;;;21.10;26.90;;;;;;5127695;28;20046;-57
2022/04/11 07:40:07;;;;;;;;;;;21.10;26.60;;;;;;5121991;28;19930;-58
2022/04/11 07:42:33;;;;;;;;;;;21.00;26.50;;;;;;5126180;28;19923;-58
2022/04/11 07:44:59;;;;;;;;;;;21.20;26.20;;;;;;5121836;28;19927;-58
2022/04/11 07:47:25;;;;;;;;;;;20.80;26.70;;;;;;5120403;28;20400;-58
2022/04/11 07:49:51;;;;;;;;;;;21.20;26.40;;;;;;5125969;28;19930;-53
2022/04/11 07:52:17;;;;;;;;;;;21.00;26.30;;;;;;5100568;28;19927;-57
2022/04/11 07:54:42;;;;;;;;;;;21.10;26.00;;;;;;5121768;28;20063;-53
2022/04/11 07:57:09;;;;;;;;;;;21.00;25.90;;;;;;5127174;28;20416;-59
2022/04/11 07:59:35;;;;;;;;;;;21.20;25.80;;;;;;5120940;28;20530;-56
2022/04/11 08:02:01;;;;;;;;;;;21.00;26.10;;;;;;5125345;27;19927;-56
2022/04/11 08:04:27;;;;;;;;;;;21.10;26.00;;;;;;5122438;28;19981;-58
2022/04/11 08:06:52;;;;;;;;;;;21.00;25.90;;;;;;5119468;28;19931;-50
2022/04/11 08:09:19;;;;;;;;;;;21.10;25.80;;;;;;5108039;28;19923;-57
2022/04/11 08:11:44;;;;;;;;;;;20.90;26.10;;;;;;5120043;28;19976;-56
2022/04/11 08:14:10;;;;;;;;;;;21.20;25.60;;;;;;5121715;28;19931;-59
2022/04/11 08:16:36;;;;;;;;;;;21.00;25.60;;;;;;5127075;28;19930;-55
2022/04/11 08:19:02;;;;;;;;;;;21.20;25.50;;;;;;5120380;28;19927;-59
2022/04/11 08:21:27;;;;;;;;;;;21.00;25.90;;;;;;5123467;28;20366;-56
2022/04/11 08:23:53;;;;;;;;;;;21.30;25.80;;;;;;5123545;28;19996;-58
2022/04/11 08:26:19;;;;;;;;;;;20.90;26.20;;;;;;5119439;28;19930;-49
2022/04/11 08:28:45;;;;;;;;;;;21.20;25.70;;;;;;5125633;28;19931;-59
2022/04/11 08:31:10;;;;;;;;;;;21.10;25.70;;;;;;5120600;28;19924;-57
2022/04/11 08:33:36;;;;;;;;;;;21.30;25.60;;;;;;5103013;28;19924;-59
2022/04/11 08:36:03;;;;;;;;;;;21.00;25.70;;;;;;5126449;28;19961;-54
2022/04/11 08:38:28;;;;;;;;;;;21.20;25.60;;;;;;5120288;28;20410;-59
2022/04/11 08:40:54;;;;;;;;;;;21.00;26.00;;;;;;5121149;28;20872;-55
2022/04/11 08:43:23;;;;;;;;;;;21.20;25.80;;;;;;5124366;28;20341;-59
2022/04/11 08:45:51;;;;;;;;;;;21.00;25.90;;;;;;5119941;28;20363;-57
2022/04/11 08:48:18;;;;;;;;;;;21.20;25.70;;;;;;5124364;28;19923;-58
2022/04/11 08:50:44;;;;;;;;;;;20.90;25.70;;;;;;5121139;28;19928;-51
2022/04/11 08:53:10;;;;;;;;;;;21.20;25.50;;;;;;5120964;28;19971;-57
2022/04/11 08:55:36;;;;;;;;;;;21.20;25.50;;;;;;5088135;28;19978;-57
2022/04/11 08:58:02;;;;;;;;;;;21.10;25.80;;;;;;5120773;28;19927;-51
2022/04/11 09:00:27;;;;;;;;;;;21.30;25.60;;;;;;5120004;28;20226;-52
2022/04/11 09:02:53;;;;;;;;;;;21.00;25.90;;;;;;5124214;28;20276;-52
2022/04/11 09:05:23;;;;;;;;;;;21.20;25.80;;;;;;5119821;28;19942;-56
2022/04/11 09:07:55;;;;;;;;;;;21.10;25.90;;;;;;5124487;28;19933;-56
2022/04/11 09:10:24;;;;;;;;;;;21.10;25.80;;;;;;5107322;28;19934;-57
2022/04/11 09:12:51;;;;;;;;;;;21.20;25.70;;;;;;5121914;27;20387;-58
2022/04/11 09:15:17;;;;;;;;;;;21.10;25.50;;;;;;5128643;28;19924;-57
2022/04/11 09:17:43;;;;;;;;;;;21.20;25.40;;;;;;5124263;28;19923;-59
2022/04/11 09:20:13;;;;;;;;;;;21.00;25.50;;;;;;5122447;28;19945;-58
2022/04/11 09:22:39;;;;;;;;;;;21.10;25.40;;;;;;5128493;28;19957;-60
2022/04/11 09:25:05;;;;;;;;;;;21.00;25.40;;;;;;5122466;28;20394;-54
2022/04/11 09:27:31;;;;;;;;;;;21.20;25.40;;;;;;5124093;28;20463;-51
2022/04/11 09:29:57;;;;;;;;;;;21.20;25.60;;;;;;5129559;28;19923;-57
2022/04/11 09:32:23;;;;;;;;;;;21.10;26.00;;;;;;5104675;28;19938;-56
2022/04/11 09:34:52;;;;;;;;;;;21.20;25.70;;;;;;5111075;28;19927;-58
2022/04/11 09:37:18;;;;;;;;;;;21.00;25.80;;;;;;5104339;28;19932;-53
2022/04/11 09:39:44;;;;;;;;;;;21.20;25.80;;;;;;5121969;28;19946;-59
2022/04/11 09:42:10;;;;;;;;;;;20.90;26.00;;;;;;5108431;28;20002;-58
2022/04/11 09:44:36;;;;;;;;;;;21.30;25.50;;;;;;5122853;28;20394;-59
2022/04/11 09:47:02;;;;;;;;;;;20.90;26.10;;;;;;5124211;28;19928;-59
2022/04/11 09:49:28;;;;;;;;;;;21.30;25.80;;;;;;5129244;28;20018;-59
2022/04/11 09:52:11;;;;;;;;;;;21.00;26.00;;;;;;5122731;28;19924;-58
2022/04/11 09:54:42;;;;;;;;;;;21.20;25.30;;;;;;5123614;28;20022;-56
2022/04/11 09:57:08;;;;;;;;;;;21.20;25.30;;;;;;5127178;28;20391;-58
2022/04/11 09:59:35;;;;;;;;;;;21.00;25.60;;;;;;5122482;28;19934;-56
2022/04/11 10:02:00;;;;;;;;;;;21.20;25.20;;;;;;5126686;28;19974;-57
2022/04/11 10:04:27;;;;;;;;;;;20.90;24.70;;;;;;5124646;28;20850;-55
2022/04/11 10:06:53;;;;;;;;;;;21.30;24.50;;;;;;5123472;28;19924;-56
2022/04/11 10:09:21;;;;;;;;;;;21.10;24.80;;;;;;5127728;28;20022;-52
2022/04/11 10:11:47;;;;;;;;;;;21.00;24.70;;;;;;5123232;28;19996;-57
2022/04/11 10:14:17;;;;;;;;;;;21.20;24.60;;;;;;5122915;28;19928;-59
2022/04/11 10:16:43;;;;;;;;;;;21.00;25.10;;;;;;5126947;28;19924;-57
2022/04/11 10:19:12;;;;;;;;;;;21.20;25.10;;;;;;5122437;28;20367;-58
2022/04/11 10:21:41;;;;;;;;;;;21.10;25.40;;;;;;5122081;28;19927;-55
2022/04/11 10:24:13;;;;;;;;;;;21.10;25.60;;;;;;5109890;28;20030;-58
2022/04/11 10:26:43;;;;;;;;;;;21.10;25.60;;;;;;5123069;28;19928;-59
2022/04/11 10:31:48;;;;;;;;;;;21.10;24.80;;;;;;5206648;27;19936;-57
2022/04/11 10:34:18;;;;;;;;;;;21.10;24.30;;;;;;5179459;27;19966;-57
2022/04/11 10:36:43;;;;;;;;;;;21.20;24.30;;;;;;5187243;27;19934;-58
2022/04/11 10:39:12;;;;;;;;;;;21.20;23.70;;;;;;5180157;27;19930;-51
2022/04/11 10:41:56;;;;;;;;;;;21.20;23.60;;;;;;5201304;27;19930;-51
2022/04/11 10:44:53;;;;;;;;;;;21.10;23.90;;;;;;5206492;27;19929;-56
2022/04/11 10:47:26;;;;;;;;;;;21.20;24.10;;;;;;5183407;27;20381;-58
2022/04/11 10:49:58;;;;;;;;;;;21.30;24.30;;;;;;5200699;27;19923;-59
2022/04/11 10:52:27;;;;;;;;;;;21.00;24.90;;;;;;5201982;27;19929;-58
2022/04/11 10:54:53;;;;;;;;;;;21.30;24.50;;;;;;5204073;27;20369;-48
2022/04/11 10:57:38;;;;;;;;;;;21.10;24.40;;;;;;5198916;27;19943;-56
2022/04/11 11:00:06;;;;;;;;;;;21.10;24.00;;;;;;5205527;27;19926;-57
2022/04/11 11:02:53;;;;;;;;;;;21.20;24.00;;;;;;5202131;27;19922;-59
2022/04/11 11:05:28;;;;;;;;;;;21.10;24.20;;;;;;5199526;27;20377;-58
2022/04/11 11:08:06;;;;;;;;;;;21.30;24.20;;;;;;5203255;27;19929;-57
2022/04/11 11:10:52;;;;;;;;;;;21.00;24.40;;;;;;5204210;27;19936;-58
2022/04/11 11:13:30;;;;;;;;;;;21.20;24.30;;;;;;5199916;27;20002;-59
2022/04/11 11:16:00;;;;;;;;;;;21.10;24.60;;;;;;5198827;27;20179;-58
2022/04/11 11:18:27;;;;;;;;;;;21.10;24.90;;;;;;5206192;27;19974;-49
2022/04/11 11:20:53;;;;;;;;;;;21.10;24.90;;;;;;5200585;27;20301;-50
2022/04/11 11:23:26;;;;;;;;;;;20.90;25.20;;;;;;5183478;27;19981;-56
2022/04/11 11:25:52;;;;;;;;;;;21.30;25.00;;;;;;5183514;27;20384;-59
2022/04/11 11:28:18;;;;;;;;;;;21.00;25.00;;;;;;5178099;27;19946;-58
2022/04/11 11:30:43;;;;;;;;;;;21.30;24.60;;;;;;5182399;27;20313;-58
2022/04/11 11:33:13;;;;;;;;;;;21.00;24.70;;;;;;5177828;27;19927;-57
2022/04/11 11:35:46;;;;;;;;;;;21.30;24.00;;;;;;5177993;27;19932;-57
2022/04/11 11:38:11;;;;;;;;;;;21.00;24.00;;;;;;5184500;27;19923;-58
2022/04/11 11:40:51;;;;;;;;;;;21.30;23.60;;;;;;5178759;27;19938;-57
2022/04/11 11:43:16;;;;;;;;;;;21.00;23.60;;;;;;5163477;27;19927;-57
2022/04/11 11:45:42;;;;;;;;;;;21.30;23.50;;;;;;5169973;27;20388;-49
2022/04/11 11:48:17;;;;;;;;;;;21.10;23.80;;;;;;5162646;27;19923;-58
2022/04/11 11:50:44;;;;;;;;;;;21.10;24.00;;;;;;5163975;27;20065;-58
2022/04/11 11:53:13;;;;;;;;;;;21.20;24.10;;;;;;5149728;27;19933;-48
2022/04/11 11:55:51;;;;;;;;;;;21.00;23.90;;;;;;5164842;27;19929;-58
2022/04/11 11:58:16;;;;;;;;;;;21.30;23.60;;;;;;5165829;27;19923;-55
2022/04/11 12:00:48;;;;;;;;;;;21.10;23.40;;;;;;5167816;27;19929;-58
2022/04/11 12:05:59;;;;;;;;;;;21.00;23.50;;;;;;5165135;27;19922;-54
2022/04/11 12:08:30;;;;;;;;;;;21.30;22.90;;;;;;5166863;27;19970;-57
2022/04/11 12:10:56;;;;;;;;;;;21.10;22.90;;;;;;5162674;27;19923;-58
2022/04/11 12:13:29;;;;;;;;;;;21.30;22.80;;;;;;5151110;27;19943;-46
2022/04/11 12:16:08;;;;;;;;;;;21.00;22.90;;;;;;5164365;27;19947;-51
2022/04/11 12:18:50;;;;;;;;;;;21.30;23.00;;;;;;5163048;27;20022;-58
2022/04/11 12:21:16;;;;;;;;;;;21.10;23.30;;;;;;5169612;27;19926;-58
2022/04/11 12:23:47;;;;;;;;;;;21.30;23.30;;;;;;5163031;27;19927;-56
2022/04/11 12:26:34;;;;;;;;;;;21.10;23.40;;;;;;5162181;27;19922;-55
2022/04/11 12:29:07;;;;;;;;;;;21.20;23.30;;;;;;5167639;27;19927;-60
2022/04/11 12:31:33;;;;;;;;;;;21.10;22.70;;;;;;5165308;27;19926;-48
2022/04/11 12:34:07;;;;;;;;;;;21.10;22.80;;;;;;5145349;27;20366;-57
2022/04/11 12:36:33;;;;;;;;;;;21.20;23.00;;;;;;5168585;27;20110;-46
2022/04/11 12:39:00;;;;;;;;;;;21.10;23.30;;;;;;5163636;27;20354;-56
2022/04/11 12:41:25;;;;;;;;;;;21.20;23.50;;;;;;5163429;27;19952;-59
2022/04/11 12:44:00;;;;;;;;;;;21.10;23.80;;;;;;5167023;27;19922;-57
2022/04/11 12:46:26;;;;;;;;;;;21.20;23.80;;;;;;5163353;27;20036;-57
2022/04/11 12:48:58;;;;;;;;;;;21.10;24.30;;;;;;5162273;27;19923;-55
2022/04/11 12:51:24;;;;;;;;;;;21.30;24.30;;;;;;5169335;27;19922;-55
2022/04/11 12:53:50;;;;;;;;;;;21.10;24.80;;;;;;5162577;27;19930;-48
2022/04/11 12:56:15;;;;;;;;;;;21.10;24.70;;;;;;5165714;27;19962;-56
2022/04/11 12:58:41;;;;;;;;;;;21.30;24.10;;;;;;5166103;27;19934;-57
2022/04/11 13:01:07;;;;;;;;;;;21.00;24.40;;;;;;5162118;27;19946;-56
2022/04/11 13:03:34;;;;;;;;;;;21.20;24.20;;;;;;5167701;27;20080;-56
2022/04/11 13:06:01;;;;;;;;;;;21.10;23.80;;;;;;5161896;27;19923;-55
2022/04/11 13:08:27;;;;;;;;;;;21.10;23.70;;;;;;5163066;27;20340;-60
2022/04/11 13:10:55;;;;;;;;;;;21.20;23.40;;;;;;5168832;27;19934;-48
2022/04/11 13:13:21;;;;;;;;;;;21.00;23.70;;;;;;5162749;27;19922;-58
2022/04/11 13:18:31;;;;;;;;;;;21.20;23.80;;;;;;5152270;27;20001;-57
2022/04/11 13:20:57;;;;;;;;;;;21.30;23.70;;;;;;5142426;27;19926;-55
2022/04/11 13:23:23;;;;;;;;;;;21.10;24.00;;;;;;5145041;27;19927;-59
2022/04/11 13:25:49;;;;;;;;;;;21.30;24.10;;;;;;5164756;27;19926;-59
2022/04/11 13:28:15;;;;;;;;;;;21.10;23.70;;;;;;5163316;27;19930;-57
2022/04/11 13:30:40;;;;;;;;;;;21.10;23.40;;;;;;5168720;27;19955;-56
2022/04/11 13:33:06;;;;;;;;;;;21.10;23.50;;;;;;5161945;27;20361;-57
2022/04/11 13:35:32;;;;;;;;;;;21.20;23.50;;;;;;5163164;27;20309;-50
2022/04/11 13:37:58;;;;;;;;;;;21.10;23.60;;;;;;5167066;27;20398;-58
2022/04/11 13:40:23;;;;;;;;;;;21.30;23.50;;;;;;5161387;27;19926;-57
2022/04/11 13:42:50;;;;;;;;;;;21.20;23.90;;;;;;5143005;27;19962;-59
2022/04/11 13:45:16;;;;;;;;;;;21.20;23.90;;;;;;5167755;27;19970;-55
2022/04/11 13:47:42;;;;;;;;;;;21.10;24.00;;;;;;5162899;27;20045;-58
2022/04/11 13:50:08;;;;;;;;;;;21.30;24.00;;;;;;5167892;27;19923;-55
2022/04/11 13:52:34;;;;;;;;;;;21.10;24.00;;;;;;5162180;27;19967;-58
2022/04/11 13:54:59;;;;;;;;;;;21.30;23.90;;;;;;5162239;27;20145;-56
2022/04/11 13:57:25;;;;;;;;;;;21.30;24.00;;;;;;5166090;27;19930;-58
2022/04/11 13:59:51;;;;;;;;;;;21.30;24.20;;;;;;5161871;27;19998;-56
2022/04/11 14:02:17;;;;;;;;;;;21.20;24.70;;;;;;5160797;27;19927;-54
2022/04/11 14:04:43;;;;;;;;;;;21.10;25.00;;;;;;5167891;27;19923;-56
2022/04/11 14:07:08;;;;;;;;;;;21.10;25.00;;;;;;5162652;27;19930;-58
2022/04/11 14:09:34;;;;;;;;;;;21.30;25.00;;;;;;5166519;27;19930;-59
2022/04/11 14:12:00;;;;;;;;;;;21.30;24.40;;;;;;5162121;27;20378;-58
2022/04/11 14:14:27;;;;;;;;;;;21.30;24.10;;;;;;5161336;27;19927;-55
2022/04/11 14:16:53;;;;;;;;;;;21.30;24.20;;;;;;5165982;27;19948;-58
2022/04/11 14:19:18;;;;;;;;;;;21.30;24.10;;;;;;5161276;27;19923;-57
2022/04/11 14:21:44;;;;;;;;;;;21.30;24.00;;;;;;5161470;27;20159;-55
2022/04/11 14:24:10;;;;;;;;;;;21.20;24.50;;;;;;5167932;27;19926;-59